Time;durP1;ratioP1;P1;durP2;ratioP2;P2;SDS_P1;SDS_P2;PMS_P1;PMS_P2;Temp;Humidity;BMP_temperature;BMP_pressure;BME280_temperature;BME280_humidity;BME280_pressure;Samples;Min_cycle;Max_cycle;Signal;HPM_P1;HPM_P2
2024/02/13 00:01:41;;;;;;;5.70;5.10;;;;;;;4.90;100.00;100074.16;103702;1310;22584;-59
2024/02/13 00:04:10;;;;;;;9.40;5.60;;;;;;;4.94;100.00;100082.18;103813;1297;22574;-60
2024/02/13 00:06:37;;;;;;;7.60;5.60;;;;;;;4.98;100.00;100085.07;103743;1310;26566;-57
2024/02/13 00:09:04;;;;;;;9.50;5.50;;;;;;;5.01;100.00;100089.51;103829;1292;22553;-59
2024/02/13 00:11:30;;;;;;;7.50;5.40;;;;;;;5.03;100.00;100091.89;107380;1304;23035;-59
2024/02/13 00:13:56;;;;;;;8.70;5.50;;;;;;;5.06;100.00;100094.80;107437;1310;22125;-59
2024/02/13 00:16:22;;;;;;;9.50;6.40;;;;;;;5.10;100.00;100098.89;107404;1310;23225;-59
2024/02/13 00:18:49;;;;;;;8.90;6.40;;;;;;;5.12;100.00;100097.01;104962;1288;22584;-55
2024/02/13 00:21:15;;;;;;;;;;;;;;;5.15;100.00;100101.61;103841;1304;22601;-59
2024/02/13 00:23:40;;;;;;;7.50;6.10;;;;;;;5.17;100.00;100101.61;103864;1310;22569;-56
2024/02/13 00:26:09;;;;;;;10.10;5.90;;;;;;;5.18;100.00;100107.25;103515;1310;22681;-60
2024/02/13 00:28:37;;;;;;;10.50;6.70;;;;;;;5.20;100.00;100113.89;103933;1286;22588;-56
2024/02/13 00:31:07;;;;;;;10.30;7.20;;;;;;;5.21;100.00;100115.23;103659;1310;24385;-59
2024/02/13 00:33:34;;;;;;;8.10;6.20;;;;;;;5.21;100.00;100117.97;103939;1305;23924;-58
2024/02/13 00:36:01;;;;;;;10.20;7.10;;;;;;;5.21;100.00;100122.76;105921;1304;22577;-59
2024/02/13 00:38:29;;;;;;;15.30;6.60;;;;;;;5.24;100.00;100117.95;103903;1309;24402;-58
2024/02/13 00:40:55;;;;;;;7.80;6.00;;;;;;;5.25;100.00;100120.86;103870;1302;22557;-59
2024/02/13 00:43:20;;;;;;;9.00;7.30;;;;;;;5.23;100.00;100129.92;103899;1310;25326;-59
2024/02/13 00:45:46;;;;;;;9.20;6.70;;;;;;;5.19;100.00;100132.01;103828;1310;22739;-59
2024/02/13 00:48:13;;;;;;;12.40;6.90;;;;;;;5.14;100.00;100135.44;107200;1304;22316;-59
2024/02/13 00:50:38;;;;;;;11.60;6.90;;;;;;;5.08;100.00;100140.23;107405;1286;22826;-58
2024/02/13 00:53:05;;;;;;;10.90;6.40;;;;;;;5.03;100.00;100140.92;106440;1307;26204;-59
2024/02/13 00:55:31;;;;;;;9.20;7.50;;;;;;;4.97;100.00;100144.17;107419;1310;22690;-60
2024/02/13 00:58:00;;;;;;;13.60;6.70;;;;;;;4.94;100.00;100148.78;106971;1301;25269;-59
2024/02/13 01:00:25;;;;;;;8.50;6.90;;;;;;;4.90;100.00;100154.26;103713;1294;22686;-59
2024/02/13 01:02:51;;;;;;;9.70;6.50;;;;;;;4.87;100.00;100153.73;103906;1305;24397;-59
2024/02/13 01:05:16;;;;;;;12.70;7.00;;;;;;;4.86;100.00;100153.56;103932;1309;22650;-59
2024/02/13 01:07:43;;;;;;;11.20;7.40;;;;;;;4.83;100.00;100154.59;103959;1307;22685;-59
2024/02/13 01:10:09;;;;;;;8.50;7.60;;;;;;;4.78;100.00;100159.89;106822;1291;22555;-59
2024/02/13 01:12:35;;;;;;;12.60;8.40;;;;;;;4.76;100.00;100162.45;103958;1305;22564;-59
2024/02/13 01:15:01;;;;;;;14.40;8.10;;;;;;;4.73;100.00;100162.95;103962;1310;22616;-57
2024/02/13 01:17:28;;;;;;;13.10;8.40;;;;;;;4.67;100.00;100161.27;107446;1304;22783;-59
2024/02/13 01:19:54;;;;;;;11.40;8.50;;;;;;;4.63;100.00;100164.52;105470;1288;24416;-59
2024/02/13 01:22:20;;;;;;;15.00;8.10;;;;;;;4.58;100.00;100163.14;103786;1295;23431;-56
2024/02/13 01:24:46;;;;;;;13.40;8.10;;;;;;;4.54;100.00;100168.09;103805;1306;27582;-58
2024/02/13 01:27:11;;;;;;;11.80;8.30;;;;;;;4.54;100.00;100172.02;103721;1305;22570;-59
2024/02/13 01:29:36;;;;;;;12.80;8.00;;;;;;;4.55;100.00;100175.43;103773;1310;25457;-57
2024/02/13 01:32:05;;;;;;;15.60;8.20;;;;;;;4.55;100.00;100173.04;103946;1290;25355;-59
2024/02/13 01:34:31;;;;;;;11.00;7.90;;;;;;;4.56;100.00;100176.63;103688;1310;22571;-59
2024/02/13 01:36:57;;;;;;;12.30;8.90;;;;;;;4.58;100.00;100172.36;103890;1295;25532;-59
2024/02/13 01:39:24;;;;;;;16.30;8.60;;;;;;;4.61;100.00;100180.73;103949;1294;22556;-60
2024/02/13 01:41:50;;;;;;;16.80;9.60;;;;;;;4.66;100.00;100183.98;103838;1310;25617;-59
2024/02/13 01:44:16;;;;;;;16.10;9.50;;;;;;;4.68;100.00;100190.29;107399;1310;22968;-60
2024/02/13 01:46:45;;;;;;;18.10;9.30;;;;;;;4.69;100.00;100194.89;105689;1307;25422;-59
2024/02/13 01:49:11;;;;;;;11.50;9.10;;;;;;;4.69;100.00;100195.90;103656;1307;25433;-57
2024/02/13 01:51:39;;;;;;;16.00;9.90;;;;;;;4.71;100.00;100199.16;107342;1291;22258;-60
2024/02/13 01:54:10;;;;;;;14.50;9.60;;;;;;;4.71;100.00;100202.73;107430;1310;22999;-60
2024/02/13 01:56:38;;;;;;;15.40;10.10;;;;;;;4.72;100.00;100201.88;107378;1302;23133;-58
2024/02/13 01:59:04;;;;;;;16.70;10.10;;;;;;;4.72;100.00;100207.00;104813;1309;22598;-59
2024/02/13 02:01:32;;;;;;;12.60;10.00;;;;;;;4.71;100.00;100209.73;104065;1287;23441;-59
2024/02/13 02:04:00;;;;;;;16.70;10.60;;;;;;;4.71;100.00;100210.25;103739;1310;23556;-57
2024/02/13 02:06:26;;;;;;;19.80;10.90;;;;;;;4.72;100.00;100213.48;103867;1303;23970;-59
2024/02/13 02:08:53;;;;;;;13.50;9.50;;;;;;;4.74;100.00;100215.55;103784;1310;23191;-59
2024/02/13 02:11:18;;;;;;;16.50;10.50;;;;;;;4.76;100.00;100218.45;103793;1288;23576;-58
2024/02/13 02:13:44;;;;;;;15.50;10.90;;;;;;;4.75;100.00;100222.71;103781;1309;22611;-58
2024/02/13 02:16:10;;;;;;;14.10;10.30;;;;;;;4.77;100.00;100227.67;103884;1310;23057;-59
2024/02/13 02:18:36;;;;;;;18.10;10.50;;;;;;;4.80;100.00;100233.31;103935;1302;25202;-60
2024/02/13 02:21:01;;;;;;;16.70;10.10;;;;;;;4.82;100.00;100236.73;103814;1287;23441;-59
2024/02/13 02:23:27;;;;;;;18.40;10.50;;;;;;;4.84;100.00;100236.91;103684;1310;24250;-59
2024/02/13 02:25:53;;;;;;;13.60;10.50;;;;;;;4.84;100.00;100237.41;103823;1288;22503;-58
2024/02/13 02:28:19;;;;;;;17.10;10.60;;;;;;;4.84;100.00;100240.14;103718;1310;22587;-59
2024/02/13 02:30:45;;;;;;;12.70;10.20;;;;;;;4.84;100.00;100243.56;103868;1310;22693;-61
2024/02/13 02:33:14;;;;;;;17.70;12.30;;;;;;;4.84;100.00;100238.95;103929;1288;22595;-59
2024/02/13 02:35:41;;;;;;;21.00;12.20;;;;;;;4.85;100.00;100247.15;103907;1307;22583;-58
2024/02/13 02:38:10;;;;;;;;;;;;;;;4.86;100.00;100250.05;104218;1310;22551;-59
2024/02/13 02:40:37;;;;;;;20.70;11.00;;;;;;;4.86;100.00;100251.59;103793;1302;25186;-58
2024/02/13 02:43:03;;;;;;;18.90;11.60;;;;;;;4.85;100.00;100253.47;103800;1291;22612;-58
2024/02/13 02:45:29;;;;;;;18.20;10.60;;;;;;;4.85;100.00;100257.74;103969;1310;22558;-60
2024/02/13 02:47:54;;;;;;;17.90;11.20;;;;;;;4.86;100.00;100264.92;103798;1302;22575;-59
2024/02/13 02:50:22;;;;;;;21.40;12.20;;;;;;;4.87;100.00;100272.61;103901;1309;22637;-59
2024/02/13 02:52:48;;;;;;;13.90;10.60;;;;;;;4.89;100.00;100280.98;103911;1305;22646;-59
2024/02/13 02:55:13;;;;;;;16.10;11.70;;;;;;;4.90;100.00;100283.02;103785;1309;22575;-58
2024/02/13 02:57:39;;;;;;;16.00;10.80;;;;;;;4.90;100.00;100281.83;103906;1310;23638;-57
2024/02/13 03:00:10;;;;;;;19.50;12.00;;;;;;;4.90;100.00;100286.79;103894;1309;22688;-59
2024/02/13 03:02:37;;;;;;;18.40;11.90;;;;;;;4.89;100.00;100291.56;107357;1290;22257;-60
2024/02/13 03:05:05;;;;;;;18.70;11.80;;;;;;;4.89;100.00;100296.35;106320;1310;26620;-58
2024/02/13 03:07:31;;;;;;;24.50;13.10;;;;;;;4.91;100.00;100296.86;103924;1298;22621;-59
2024/02/13 03:09:58;;;;;;;20.30;13.50;;;;;;;4.90;100.00;100303.01;103887;1310;22727;-59
2024/02/13 03:12:25;;;;;;;57.90;30.90;;;;;;;4.91;100.00;100308.48;103752;1293;25330;-59
2024/02/13 03:14:52;;;;;;;22.80;13.20;;;;;;;4.91;100.00;100308.13;105257;1307;22643;-58
2024/02/13 03:17:18;;;;;;;16.90;11.90;;;;;;;4.91;100.00;100307.28;103668;1310;23351;-57
2024/02/13 03:19:44;;;;;;;23.30;13.10;;;;;;;4.91;100.00;100317.02;107466;1304;22336;-59
2024/02/13 03:22:10;;;;;;;16.60;11.90;;;;;;;4.91;100.00;100319.41;107420;1288;23020;-60
2024/02/13 03:24:35;;;;;;;19.40;12.10;;;;;;;4.91;100.00;100321.45;106775;1303;22586;-58
2024/02/13 03:27:01;;;;;;;18.00;11.30;;;;;;;4.93;100.00;100320.78;103847;1296;22786;-59
2024/02/13 03:29:27;;;;;;;17.50;10.10;;;;;;;4.91;100.00;100322.65;103847;1310;22604;-58
2024/02/13 03:31:54;;;;;;;17.30;12.00;;;;;;;4.91;100.00;100340.59;103838;1310;24338;-61
2024/02/13 03:34:20;;;;;;;19.90;11.80;;;;;;;4.90;100.00;100349.46;105210;1288;23207;-59
2024/02/13 03:36:46;;;;;;;16.60;11.50;;;;;;;4.91;100.00;100349.98;103882;1309;22833;-57
2024/02/13 03:39:12;;;;;;;26.50;11.10;;;;;;;4.92;100.00;100358.02;103709;1301;23051;-58
2024/02/13 03:41:48;;;;;;;24.00;12.00;;;;;;;4.93;100.00;100358.18;103893;1309;22668;-59
2024/02/13 03:44:13;;;;;;;32.80;14.10;;;;;;;4.93;100.00;100366.55;103855;1290;22586;-59
2024/02/13 03:46:40;;;;;;;17.30;11.20;;;;;;;4.93;100.00;100369.45;103897;1303;22626;-60
2024/02/13 03:49:08;;;;;;;14.70;11.20;;;;;;;4.93;100.00;100367.91;103802;1300;22637;-59
2024/02/13 03:51:38;;;;;;;20.10;11.80;;;;;;;4.93;100.00;100371.84;107280;1307;22265;-57
2024/02/13 03:54:09;;;;;;;17.50;10.50;;;;;;;4.93;100.00;100377.66;107456;1302;22439;-60
2024/02/13 03:56:39;;;;;;;17.60;10.90;;;;;;;4.93;100.00;100381.92;107295;1309;22412;-59
2024/02/13 03:59:05;;;;;;;17.50;9.90;;;;;;;4.95;100.00;100386.55;107265;1302;23086;-59
2024/02/13 04:01:31;;;;;;;15.00;9.10;;;;;;;4.96;100.00;100387.57;107439;1310;22240;-59
2024/02/13 04:03:58;;;;;;;14.60;8.90;;;;;;;4.95;100.00;100385.17;107313;1290;22258;-61
2024/02/13 04:06:24;;;;;;;9.00;8.00;;;;;;;4.97;100.00;100381.08;107200;1310;22330;-59
2024/02/13 04:08:49;;;;;;;26.20;21.20;;;;;;;4.97;100.00;100391.84;107326;1303;23439;-59
2024/02/13 04:11:16;;;;;;;9.90;7.80;;;;;;;4.95;100.00;100399.86;107282;1310;22263;-60
2024/02/13 04:13:42;;;;;;;8.10;7.20;;;;;;;4.93;100.00;100402.08;107335;1291;22321;-60
2024/02/13 04:16:07;;;;;;;12.00;7.50;;;;;;;4.92;100.00;100409.25;107414;1297;22310;-60
2024/02/13 04:18:40;;;;;;;9.70;6.70;;;;;;;4.91;100.00;100412.31;107440;1308;22321;-58
2024/02/13 04:21:05;;;;;;;12.70;8.10;;;;;;;4.92;100.00;100414.71;107387;1310;22385;-59
2024/02/13 04:23:32;;;;;;;12.90;9.10;;;;;;;4.90;100.00;100415.05;107384;1286;22233;-60
2024/02/13 04:25:58;;;;;;;13.50;7.60;;;;;;;4.91;100.00;100416.59;107367;1310;23066;-61
2024/02/13 04:28:23;;;;;;;13.20;9.10;;;;;;;4.87;100.00;100418.10;107231;1304;22347;-60
2024/02/13 04:30:49;;;;;;;15.00;8.30;;;;;;;4.81;100.00;100417.57;107347;1303;22260;-59
2024/02/13 04:33:15;;;;;;;12.40;9.60;;;;;;;4.79;100.00;100420.80;107300;1289;22420;-59
2024/02/13 04:35:41;;;;;;;13.50;9.10;;;;;;;4.77;100.00;100422.33;107255;1294;23057;-58
2024/02/13 04:38:07;;;;;;;14.20;9.70;;;;;;;4.76;100.00;100421.98;107439;1309;22901;-60
2024/02/13 04:40:33;;;;;;;16.80;10.50;;;;;;;4.76;100.00;100424.38;107468;1305;22247;-58
2024/02/13 04:43:00;;;;;;;17.10;10.90;;;;;;;4.76;100.00;100429.16;107391;1308;22363;-60
2024/02/13 04:45:29;;;;;;;19.90;11.80;;;;;;;4.76;100.00;100432.58;107335;1290;22269;-58
2024/02/13 04:47:55;;;;;;;19.70;10.70;;;;;;;4.77;100.00;100436.33;107329;1303;22305;-59
2024/02/13 04:50:20;;;;;;;22.30;11.60;;;;;;;4.76;100.00;100440.77;107329;1296;22225;-59
2024/02/13 04:52:46;;;;;;;18.70;10.40;;;;;;;4.77;100.00;100442.65;107321;1310;22262;-58
2024/02/13 04:55:11;;;;;;;18.60;11.50;;;;;;;4.78;100.00;100447.45;107372;1291;22253;-59
2024/02/13 04:57:38;;;;;;;20.50;12.40;;;;;;;4.82;100.00;100456.17;107455;1310;22237;-60
2024/02/13 05:00:24;;;;;;;18.90;11.70;;;;;;;4.84;100.00;100456.52;107519;1304;22407;-58
2024/02/13 05:08:22;;;;;;;15.70;10.50;;;;;;;4.89;100.00;100465.27;107324;1310;22335;-59
2024/02/13 05:10:48;;;;;;;18.30;10.00;;;;;;;4.90;100.00;100469.70;107257;1305;22354;-58
2024/02/13 05:13:15;;;;;;;18.30;10.60;;;;;;;4.95;100.00;100473.66;107215;1310;22290;-60
2024/02/13 05:15:41;;;;;;;19.90;11.90;;;;;;;4.93;100.00;100475.87;107390;1291;22263;-59
2024/02/13 05:18:07;;;;;;;17.10;10.70;;;;;;;4.94;100.00;100480.14;107285;1302;22212;-58
2024/02/13 05:20:33;;;;;;;15.00;10.60;;;;;;;4.96;100.00;100484.26;107447;1304;22862;-59
2024/02/13 05:23:01;;;;;;;19.40;11.40;;;;;;;4.97;100.00;100485.10;107444;1310;23092;-58
2024/02/13 05:25:28;;;;;;;18.00;9.90;;;;;;;4.98;100.00;100490.74;107445;1291;22380;-59
2024/02/13 05:27:54;;;;;;;15.20;10.30;;;;;;;5.01;100.00;100490.77;107457;1302;23168;-59
2024/02/13 05:30:20;;;;;;;17.70;10.40;;;;;;;4.99;100.00;100493.15;107510;1305;22274;-59
2024/02/13 05:32:46;;;;;;;21.30;10.90;;;;;;;4.98;100.00;100495.19;107485;1308;22264;-59
2024/02/13 05:35:12;;;;;;;16.00;11.30;;;;;;;4.97;100.00;100498.44;107196;1294;22350;-59
2024/02/13 05:37:38;;;;;;;12.30;9.90;;;;;;;4.97;100.00;100500.83;107333;1309;22280;-59
2024/02/13 05:40:06;;;;;;;18.00;10.20;;;;;;;4.97;100.00;100507.48;107423;1308;22682;-59
2024/02/13 05:42:31;;;;;;;18.90;11.00;;;;;;;4.96;100.00;100509.88;107438;1305;22273;-59
2024/02/13 05:44:57;;;;;;;20.50;11.80;;;;;;;4.96;100.00;100514.32;107420;1286;22908;-58
2024/02/13 05:47:24;;;;;;;14.10;9.10;;;;;;;4.95;100.00;100518.41;107429;1310;23017;-58
2024/02/13 05:49:50;;;;;;;18.00;10.60;;;;;;;4.96;100.00;100520.29;107401;1298;22346;-58
2024/02/13 05:52:18;;;;;;;12.10;8.70;;;;;;;4.96;100.00;100527.98;107411;1308;22257;-59
2024/02/13 05:54:44;;;;;;;15.10;9.30;;;;;;;4.96;100.00;100533.27;107483;1309;22323;-59
2024/02/13 05:57:10;;;;;;;;;;;;;;;5.00;100.00;100540.98;107303;1291;22367;-58
2024/02/13 05:59:35;;;;;;;16.30;8.60;;;;;;;5.01;100.00;100546.80;107215;1310;22360;-61
2024/02/13 06:02:01;;;;;;;15.20;9.20;;;;;;;5.02;100.00;100546.29;104447;1303;22583;-57
2024/02/13 06:04:27;;;;;;;23.80;9.70;;;;;;;5.00;100.00;100543.89;103794;1310;25425;-58
2024/02/13 06:06:52;;;;;;;17.80;9.60;;;;;;;4.97;100.00;100549.50;103986;1292;23377;-58
2024/02/13 06:09:21;;;;;;;13.20;9.40;;;;;;;4.95;100.00;100550.86;103911;1309;25551;-57
2024/02/13 06:11:49;;;;;;;16.60;10.00;;;;;;;4.91;100.00;100559.20;103706;1310;22661;-66
2024/02/13 06:14:17;;;;;;;18.90;9.20;;;;;;;4.87;100.00;100567.71;103920;1295;22600;-59
2024/02/13 06:16:43;;;;;;;13.90;9.20;;;;;;;4.83;100.00;100569.91;103730;1293;23009;-58
2024/02/13 06:19:10;;;;;;;15.80;9.20;;;;;;;4.76;100.00;100572.09;103969;1310;22588;-58
2024/02/13 06:21:36;;;;;;;16.50;9.10;;;;;;;4.70;100.00;100572.22;104029;1310;22638;-58
2024/02/13 06:24:02;;;;;;;15.40;8.60;;;;;;;4.63;100.00;100572.53;103978;1310;25821;-57
2024/02/13 06:26:28;;;;;;;19.80;9.60;;;;;;;4.57;100.00;100584.43;103811;1301;25326;-59
2024/02/13 06:28:54;;;;;;;15.20;8.70;;;;;;;4.54;100.00;100586.45;103814;1310;27440;-58
2024/02/13 06:31:20;;;;;;;12.00;8.80;;;;;;;4.49;100.00;100594.45;103709;1310;22589;-58
2024/02/13 06:33:46;;;;;;;15.40;8.90;;;;;;;4.49;100.00;100600.77;103854;1310;22562;-57
2024/02/13 06:36:11;;;;;;;18.10;9.60;;;;;;;4.51;100.00;100606.06;103925;1291;22676;-55
2024/02/13 06:38:37;;;;;;;12.10;8.10;;;;;;;4.54;100.00;100608.15;104000;1305;25512;-57
2024/02/13 06:41:08;;;;;;;14.70;8.60;;;;;;;4.57;100.00;100610.73;103861;1310;23818;-58
2024/02/13 06:43:34;;;;;;;18.70;8.60;;;;;;;4.62;100.00;100616.40;103912;1310;22565;-57
2024/02/13 06:46:03;;;;;;;17.80;9.00;;;;;;;4.64;100.00;100625.98;103881;1290;22572;-59
2024/02/13 06:48:30;;;;;;;14.10;8.20;;;;;;;4.69;100.00;100631.28;103863;1307;23239;-63
2024/02/13 06:50:56;;;;;;;16.20;8.20;;;;;;;4.71;100.00;100635.40;103936;1302;22556;-56
2024/02/13 06:53:22;;;;;;;14.40;8.20;;;;;;;4.74;100.00;100636.61;103967;1309;24299;-56
2024/02/13 06:55:48;;;;;;;16.40;8.10;;;;;;;4.77;100.00;100643.48;103999;1309;22691;-58
2024/02/13 06:58:16;;;;;;;24.50;9.70;;;;;;;4.78;100.00;100651.69;103961;1291;25563;-59
2024/02/13 07:00:43;;;;;;;13.50;7.10;;;;;;;4.80;100.00;100655.63;107339;1302;22383;-60
2024/02/13 07:03:09;;;;;;;9.60;7.20;;;;;;;4.84;100.00;100658.40;107390;1310;22354;-59
2024/02/13 07:05:35;;;;;;;13.20;7.60;;;;;;;4.88;100.00;100661.67;107420;1310;22022;-58
2024/02/13 07:08:00;;;;;;;13.40;6.40;;;;;;;4.91;100.00;100667.16;107474;1292;22214;-60
2024/02/13 07:10:26;;;;;;;12.20;7.00;;;;;;;4.94;100.00;100670.09;107479;1309;22301;-57
2024/02/13 07:12:51;;;;;;;12.30;6.90;;;;;;;4.98;100.00;100673.70;107424;1310;22245;-60
2024/02/13 07:15:17;;;;;;;13.30;6.30;;;;;;;5.02;100.00;100675.61;107373;1310;22254;-59
2024/02/13 07:17:43;;;;;;;13.80;6.40;;;;;;;5.06;100.00;100675.81;107363;1290;22719;-59
2024/02/13 07:20:15;;;;;;;12.20;5.60;;;;;;;5.12;100.00;100683.20;107277;1310;22824;-59
2024/02/13 07:22:40;;;;;;;13.30;6.30;;;;;;;5.14;100.00;100685.79;107106;1306;22316;-60
2024/02/13 07:25:08;;;;;;;7.60;5.20;;;;;;;5.19;100.00;100685.47;107136;1310;23466;-60
2024/02/13 07:27:39;;;;;;;10.90;5.40;;;;;;;5.22;100.00;100688.20;107319;1291;22294;-58
2024/02/13 07:30:10;;;;;;;10.50;5.60;;;;;;;5.25;100.00;100692.15;107174;1310;22930;-59
2024/02/13 07:32:45;;;;;;;9.40;5.10;;;;;;;5.25;100.00;100697.11;107112;1302;23297;-57
2024/02/13 07:35:10;;;;;;;15.80;7.10;;;;;;;5.24;100.00;100700.52;107413;1310;22269;-59
2024/02/13 07:37:36;;;;;;;6.80;4.50;;;;;;;5.24;100.00;100704.45;107314;1291;22488;-57
2024/02/13 07:40:02;;;;;;;11.90;4.80;;;;;;;5.25;100.00;100709.59;107373;1310;22271;-60
2024/02/13 07:42:28;;;;;;;8.80;3.50;;;;;;;5.27;100.00;100711.31;107324;1310;23064;-60
2024/02/13 07:44:57;;;;;;;5.50;3.40;;;;;;;5.28;100.00;100709.61;107280;1306;22425;-58
2024/02/13 07:47:25;;;;;;;9.50;4.20;;;;;;;5.27;100.00;100714.73;107293;1290;22269;-60
2024/02/13 07:49:52;;;;;;;8.50;3.70;;;;;;;5.26;100.00;100718.14;107394;1308;23852;-58
2024/02/13 07:52:18;;;;;;;8.10;3.90;;;;;;;5.28;100.00;100719.69;107225;1304;22265;-59
2024/02/13 07:54:47;;;;;;;8.10;3.50;;;;;;;5.28;100.00;100722.09;107416;1304;22241;-59
2024/02/13 07:57:16;;;;;;;10.40;3.80;;;;;;;5.28;100.00;100726.70;107411;1289;22256;-59
2024/02/13 07:59:46;;;;;;;11.30;4.10;;;;;;;5.34;100.00;100728.96;107144;1294;22233;-61
2024/02/13 08:02:12;;;;;;;8.00;4.00;;;;;;;5.38;100.00;100731.05;107298;1310;23188;-59
2024/02/13 08:04:39;;;;;;;10.20;3.40;;;;;;;5.42;100.00;100736.03;107294;1309;22152;-60
2024/02/13 08:07:07;;;;;;;8.60;3.20;;;;;;;5.42;99.99;100739.45;107287;1310;22419;-58
2024/02/13 08:09:33;;;;;;;10.70;3.40;;;;;;;5.40;99.23;100742.86;107375;1291;22244;-60
2024/02/13 08:12:02;;;;;;;9.40;3.00;;;;;;;5.40;98.82;100746.45;107397;1304;23134;-60
2024/02/13 08:14:28;;;;;;;8.30;3.40;;;;;;;5.42;99.23;100746.98;107196;1308;23492;-60
2024/02/13 08:16:54;;;;;;;19.40;5.30;;;;;;;5.46;99.56;100753.67;107445;1310;22286;-59
2024/02/13 08:19:19;;;;;;;8.30;2.70;;;;;;;5.47;98.14;100753.85;107401;1291;22249;-58
2024/02/13 08:21:47;;;;;;;7.00;2.60;;;;;;;5.50;99.31;100756.09;107401;1309;22355;-58
2024/02/13 08:24:14;;;;;;;7.50;2.40;;;;;;;5.53;98.68;100757.14;107428;1308;22330;-59
2024/02/13 08:26:40;;;;;;;8.70;2.40;;;;;;;5.57;98.64;100759.05;107399;1309;22263;-58
2024/02/13 08:29:05;;;;;;;6.50;2.80;;;;;;;5.60;98.02;100762.15;106643;1299;22572;-58
2024/02/13 08:31:30;;;;;;;9.00;2.50;;;;;;;5.68;98.71;100766.13;103951;1308;22592;-58
2024/02/13 08:33:56;;;;;;;5.80;2.50;;;;;;;5.74;98.82;100770.23;103939;1309;22583;-59
2024/02/13 08:36:24;;;;;;;7.60;2.30;;;;;;;5.79;98.73;100769.42;103852;1310;22668;-59
2024/02/13 08:38:50;;;;;;;6.10;2.00;;;;;;;5.82;98.86;100771.48;107267;1292;22223;-59
2024/02/13 08:41:16;;;;;;;7.50;2.40;;;;;;;5.83;97.65;100780.90;107295;1310;22273;-60
2024/02/13 08:43:42;;;;;;;11.10;2.60;;;;;;;5.78;96.65;100788.74;104885;1304;25284;-59
2024/02/13 08:46:08;;;;;;;7.40;2.10;;;;;;;5.73;96.28;100788.54;103762;1310;22756;-59
2024/02/13 08:48:34;;;;;;;3.80;1.60;;;;;;;5.76;97.42;100791.30;103684;1287;22730;-59
2024/02/13 08:50:59;;;;;;;7.90;2.60;;;;;;;5.74;95.48;100793.84;103909;1305;22668;-59
2024/02/13 08:53:25;;;;;;;7.80;2.30;;;;;;;5.74;96.19;100800.86;103913;1303;22588;-58
2024/02/13 08:55:51;;;;;;;6.20;1.80;;;;;;;5.71;95.37;100806.67;103887;1309;22597;-59
2024/02/13 08:58:17;;;;;;;8.10;2.20;;;;;;;5.69;94.71;100810.60;104218;1310;23843;-59
2024/02/13 09:00:42;;;;;;;10.00;2.60;;;;;;;5.67;93.77;100814.70;103595;1302;22555;-58
2024/02/13 09:03:08;;;;;;;4.60;2.40;;;;;;;5.70;94.77;100818.98;103836;1308;25423;-59
2024/02/13 09:05:33;;;;;;;8.30;2.60;;;;;;;5.78;95.10;100821.41;103823;1295;23121;-58
2024/02/13 09:07:59;;;;;;;7.40;2.60;;;;;;;5.81;93.82;100822.29;103932;1310;22668;-59
2024/02/13 09:10:24;;;;;;;9.30;2.10;;;;;;;5.81;94.63;100826.73;103857;1310;22698;-58
2024/02/13 09:12:50;;;;;;;7.00;2.40;;;;;;;5.82;95.20;100824.52;103795;1310;25433;-59
2024/02/13 09:15:15;;;;;;;9.60;2.40;;;;;;;5.84;95.69;100824.54;103899;1304;23356;-59
2024/02/13 09:17:45;;;;;;;5.00;2.70;;;;;;;5.85;95.70;100832.07;103891;1308;24833;-58
2024/02/13 09:20:14;;;;;;;10.60;2.90;;;;;;;5.85;95.74;100835.14;105719;1292;25363;-60
2024/02/13 09:22:44;;;;;;;6.40;2.10;;;;;;;5.85;95.96;100837.38;105093;1307;22566;-59
2024/02/13 09:25:14;;;;;;;8.30;2.40;;;;;;;5.84;95.16;100840.28;104722;1308;22600;-58
2024/02/13 09:27:41;;;;;;;6.40;2.00;;;;;;;5.88;95.41;100839.11;107142;1304;22599;-59
2024/02/13 09:30:08;;;;;;;9.00;2.00;;;;;;;5.91;93.99;100842.58;103909;1307;22784;-56
2024/02/13 09:32:36;;;;;;;;;;;;;;;5.90;92.88;100844.63;106030;1310;25199;-57
2024/02/13 09:35:07;;;;;;;6.50;2.20;;;;;;;6.00;93.96;100851.37;103874;1310;22573;-58
2024/02/13 09:37:39;;;;;;;8.60;2.20;;;;;;;6.16;93.30;100852.15;104888;1310;22593;-58
2024/02/13 09:40:13;;;;;;;8.50;1.90;;;;;;;6.39;94.34;100853.96;107181;1291;22601;-59
2024/02/13 09:42:48;;;;;;;6.70;1.80;;;;;;;6.59;92.40;100854.73;106840;1310;22579;-59
2024/02/13 09:45:14;;;;;;;5.80;2.10;;;;;;;6.75;92.52;100854.79;103868;1309;22588;-58
2024/02/13 09:47:40;;;;;;;6.70;2.20;;;;;;;6.98;92.25;100856.21;103888;1310;22588;-59
2024/02/13 09:50:12;;;;;;;9.90;2.40;;;;;;;7.06;91.20;100856.23;103802;1299;22575;-59
2024/02/13 09:53:05;;;;;;;77.20;28.00;;;;;;;7.44;89.99;100857.80;107339;1310;22393;-59
2024/02/13 09:55:34;;;;;;;4.00;1.60;;;;;;;7.52;88.17;100862.78;107437;1302;22280;-59
2024/02/13 09:58:00;;;;;;;7.90;3.90;;;;;;;7.98;88.56;100863.25;103865;1310;22582;-59
2024/02/13 10:00:28;;;;;;;6.70;3.80;;;;;;;7.93;84.01;100862.23;103789;1293;22589;-58
2024/02/13 10:02:53;;;;;;;8.20;2.00;;;;;;;7.83;84.55;100860.70;107385;1304;23124;-57
2024/02/13 10:05:20;;;;;;;7.40;1.80;;;;;;;7.91;85.84;100870.46;106014;1310;25494;-59
2024/02/13 10:07:46;;;;;;;;;;;;;;;7.79;84.53;100870.33;103901;1310;22543;-59
2024/02/13 10:10:12;;;;;;;3.60;1.40;;;;;;;7.72;86.45;100871.88;103698;1292;22592;-59
2024/02/13 10:13:00;;;;;;;8.90;1.60;;;;;;;7.85;87.44;100873.91;103921;1310;24269;-57
2024/02/13 10:15:46;;;;;;;7.00;1.90;;;;;;;8.22;88.46;100877.47;104598;1310;24468;-59
2024/02/13 10:18:15;;;;;;;5.10;1.50;;;;;;;8.21;85.64;100873.69;103937;1308;23276;-59
2024/02/13 10:20:42;;;;;;;8.10;1.70;;;;;;;8.15;87.17;100880.05;103981;1299;22593;-59
2024/02/13 10:23:12;;;;;;;4.40;1.30;;;;;;;8.00;84.02;100880.92;107220;1309;22226;-59
2024/02/13 10:25:46;;;;;;;2.20;1.00;;;;;;;7.78;85.11;100882.68;104482;1310;23027;-59
2024/02/13 10:28:12;;;;;;;3.90;2.00;;;;;;;7.65;85.56;100886.12;103610;1310;359555;-60
2024/02/13 10:30:38;;;;;;;8.60;1.90;;;;;;;7.47;85.72;100890.06;103890;1288;22685;-59
2024/02/13 10:33:09;;;;;;;3.70;1.10;;;;;;;7.29;85.10;100892.78;103916;1310;26641;-59
2024/02/13 10:35:35;;;;;;;5.40;1.40;;;;;;;7.22;86.46;100897.42;104998;1310;22576;-59
2024/02/13 10:38:07;;;;;;;8.90;1.70;;;;;;;7.27;86.35;100897.77;103802;1308;25368;-59
2024/02/13 10:40:35;;;;;;;3.40;1.20;;;;;;;7.22;85.87;100902.73;105349;1310;22689;-57
2024/02/13 10:43:03;;;;;;;7.20;1.90;;;;;;;7.14;83.69;100900.83;103840;1304;22568;-59
2024/02/13 10:45:30;;;;;;;5.80;1.40;;;;;;;7.03;84.82;100899.41;104590;1310;22746;-58
2024/02/13 10:48:24;;;;;;;4.60;1.20;;;;;;;7.12;86.02;100903.22;104001;1296;22560;-56
2024/02/13 10:50:53;;;;;;;3.80;1.30;;;;;;;7.14;85.44;100905.10;103360;1287;23859;-59
2024/02/13 10:53:23;;;;;;;5.20;1.40;;;;;;;7.06;83.77;100907.14;103944;1310;24008;-59
2024/02/13 10:55:52;;;;;;;4.80;2.00;;;;;;;6.83;82.29;100907.75;103660;1310;24345;-58
2024/02/13 10:58:20;;;;;;;4.70;1.30;;;;;;;6.73;82.48;100909.77;103862;1310;24418;-59
2024/02/13 11:00:48;;;;;;;7.00;2.30;;;;;;;6.66;82.54;100911.81;103968;1310;25252;-59
2024/02/13 11:03:13;;;;;;;5.00;1.40;;;;;;;6.62;82.44;100913.33;104797;1289;22800;-57
2024/02/13 11:05:39;;;;;;;5.40;1.20;;;;;;;6.62;82.66;100914.02;103698;1306;22898;-59
2024/02/13 11:08:06;;;;;;;5.90;1.30;;;;;;;6.61;81.79;100909.90;103915;1309;22573;-59
2024/02/13 11:10:34;;;;;;;37.00;11.80;;;;;;;6.56;81.83;100914.50;107244;1310;22205;-59
2024/02/13 11:13:09;;;;;;;3.20;1.20;;;;;;;6.51;79.82;100913.61;104975;1290;25408;-59
2024/02/13 11:15:39;;;;;;;4.50;1.00;;;;;;;6.47;80.93;100921.30;107238;1310;22486;-59
2024/02/13 11:18:12;;;;;;;3.90;1.20;;;;;;;6.49;81.74;100923.71;107275;1309;22323;-60
2024/02/13 11:20:42;;;;;;;6.20;1.10;;;;;;;6.54;81.62;100927.00;104647;1309;22615;-59